Time;durP1;ratioP1;P1;durP2;ratioP2;P2;SDS_P1;SDS_P2;PMS_P1;PMS_P2;Temp;Humidity;BMP_temperature;BMP_pressure;BME280_temperature;BME280_humidity;BME280_pressure;Samples;Min_cycle;Max_cycle;Signal;HPM_P1;HPM_P2
2021/08/22 00:02:14;;;;;;;4.65;3.35;;;;;;;25.61;45.45;100155.34;5033607;28;20200;-86
2021/08/22 00:04:41;;;;;;;6.75;3.50;;;;;;;25.55;45.32;100154.22;5048815;28;20558;-86
2021/08/22 00:07:08;;;;;;;6.75;4.15;;;;;;;25.60;45.22;100157.19;5033056;28;20045;-85
2021/08/22 00:09:35;;;;;;;9.68;3.20;;;;;;;25.55;45.67;100156.88;5033838;28;20457;-88
2021/08/22 00:12:02;;;;;;;6.60;3.70;;;;;;;25.48;45.46;100147.94;5032278;28;20048;-87
2021/08/22 00:14:33;;;;;;;5.55;3.95;;;;;;;25.54;45.68;100147.22;5032364;28;20057;-86
2021/08/22 00:17:00;;;;;;;7.80;4.28;;;;;;;25.39;45.99;100145.47;5048464;28;20408;-85
2021/08/22 00:19:29;;;;;;;7.10;3.95;;;;;;;25.44;46.09;100143.94;5033233;28;20045;-85
2021/08/22 00:21:56;;;;;;;4.95;3.50;;;;;;;25.42;45.86;100145.13;5033388;28;20053;-86
2021/08/22 00:24:24;;;;;;;5.00;3.60;;;;;;;25.41;45.79;100149.66;5033991;28;20038;-87
2021/08/22 00:26:51;;;;;;;11.20;4.22;;;;;;;25.37;45.81;100147.50;5032051;28;20136;-86
2021/08/22 00:29:18;;;;;;;4.93;3.97;;;;;;;25.38;45.95;100149.97;5033623;28;20042;-86
2021/08/22 00:31:45;;;;;;;5.53;3.55;;;;;;;25.33;45.98;100147.84;5049462;28;20052;-86
2021/08/22 00:34:12;;;;;;;4.85;3.65;;;;;;;25.41;46.09;100146.13;5032408;28;20072;-87
2021/08/22 00:36:40;;;;;;;5.78;3.55;;;;;;;25.32;46.05;100151.50;5033445;28;20047;-87
2021/08/22 00:39:08;;;;;;;9.70;3.45;;;;;;;25.37;46.22;100151.00;5031328;28;20508;-87
2021/08/22 00:41:37;;;;;;;7.20;4.20;;;;;;;25.28;46.04;100154.69;5031854;28;20045;-87
2021/08/22 00:44:08;;;;;;;5.40;3.67;;;;;;;25.31;46.13;100149.03;5032878;28;20381;-87
2021/08/22 00:46:37;;;;;;;6.97;3.70;;;;;;;25.32;45.91;100151.50;5031951;28;20131;-87
2021/08/22 00:49:11;;;;;;;6.43;3.60;;;;;;;25.46;45.75;100168.63;5032655;28;20053;-87
2021/08/22 00:51:39;;;;;;;5.20;3.90;;;;;;;25.46;45.90;100163.28;5031615;28;20045;-88
2021/08/22 00:54:07;;;;;;;5.65;3.55;;;;;;;25.30;45.78;100152.69;5031321;28;20462;-87
2021/08/22 00:56:42;;;;;;;8.40;5.18;;;;;;;25.36;46.03;100162.69;5033152;28;20045;-87
2021/08/22 00:59:11;;;;;;;4.10;3.55;;;;;;;25.46;45.62;100152.63;5032851;28;20049;-87
2021/08/22 01:01:40;;;;;;;7.93;4.05;;;;;;;25.44;45.84;100151.13;5047897;28;20099;-87
2021/08/22 01:04:32;;;;;;;5.70;4.13;;;;;;;25.40;45.63;100153.28;5032679;28;20496;-87
2021/08/22 01:07:22;;;;;;;4.97;3.40;;;;;;;25.53;45.82;100142.91;5031116;28;20041;-87
2021/08/22 01:09:52;;;;;;;6.85;3.70;;;;;;;25.44;45.78;100143.13;5047971;28;20124;-84
2021/08/22 01:12:42;;;;;;;5.82;3.20;;;;;;;25.37;45.76;100143.00;5032314;28;20479;-84
2021/08/22 01:15:12;;;;;;;10.00;3.92;;;;;;;25.30;45.91;100142.00;5032530;28;20061;-86
2021/08/22 01:17:48;;;;;;;6.03;3.70;;;;;;;25.44;45.70;100145.78;5031918;28;20439;-86
2021/08/22 01:20:21;;;;;;;4.18;3.70;;;;;;;25.45;45.84;100150.94;5032321;28;20042;-86
2021/08/22 01:22:50;;;;;;;4.07;3.67;;;;;;;25.45;45.82;100145.59;5030862;28;20455;-84
2021/08/22 01:25:19;;;;;;;5.18;3.40;;;;;;;25.34;45.82;100146.00;5031003;28;20045;-84
2021/08/22 01:27:48;;;;;;;6.85;3.95;;;;;;;25.36;46.10;100144.00;5047366;28;20045;-84
2021/08/22 01:30:18;;;;;;;8.63;3.80;;;;;;;25.30;46.40;100137.53;5032858;28;20068;-84
2021/08/22 01:32:49;;;;;;;6.13;3.83;;;;;;;25.39;45.96;100142.81;5031923;28;20072;-84
2021/08/22 01:35:20;;;;;;;6.35;4.07;;;;;;;25.29;45.85;100145.69;5031005;28;20057;-84
2021/08/22 01:37:51;;;;;;;7.85;3.75;;;;;;;25.30;46.35;100144.66;5048248;28;20117;-84
2021/08/22 01:40:21;;;;;;;5.05;4.10;;;;;;;25.35;45.68;100142.31;5036279;28;20052;-86
2021/08/22 01:42:49;;;;;;;13.70;4.70;;;;;;;25.40;45.63;100141.78;5034331;28;20464;-84
2021/08/22 01:45:22;;;;;;;4.38;3.88;;;;;;;25.23;46.44;100136.53;5051674;28;20064;-86
2021/08/22 01:47:51;;;;;;;7.15;4.65;;;;;;;25.38;45.59;100135.81;5036341;28;20051;-89
2021/08/22 01:50:23;;;;;;;5.35;4.05;;;;;;;25.31;45.83;100139.19;5035152;28;20046;-88
2021/08/22 01:52:55;;;;;;;5.70;3.92;;;;;;;25.27;45.86;100134.38;5035288;28;20048;-87
2021/08/22 01:55:23;;;;;;;4.40;4.00;;;;;;;25.41;45.90;100138.13;5051018;28;20092;-88
2021/08/22 01:57:50;;;;;;;5.25;4.38;;;;;;;25.27;45.93;100127.19;5032679;28;20500;-85
2021/08/22 02:00:17;;;;;;;4.80;4.05;;;;;;;25.29;45.84;100133.16;5025761;28;20064;-86
2021/08/22 02:02:57;;;;;;;6.22;4.07;;;;;;;25.26;45.74;100138.03;5033984;28;20083;-86
2021/08/22 02:05:29;;;;;;;9.30;3.63;;;;;;;25.31;45.72;100141.03;5029062;28;20041;-86
2021/08/22 02:08:01;;;;;;;5.72;4.00;;;;;;;25.44;45.85;100137.78;5031410;28;20399;-87
2021/08/22 02:10:36;;;;;;;7.70;3.70;;;;;;;25.31;45.60;100141.84;5033719;28;20049;-87
2021/08/22 02:13:04;;;;;;;6.10;3.72;;;;;;;25.31;45.61;100139.19;5018614;28;20048;-87
2021/08/22 02:15:42;;;;;;;4.50;4.05;;;;;;;25.04;47.85;100140.44;5034921;28;20041;-87
2021/08/22 02:18:15;;;;;;;6.70;4.40;;;;;;;24.78;48.61;100132.69;5035034;28;20045;-87
2021/08/22 02:20:46;;;;;;;10.23;4.80;;;;;;;24.67;48.64;100134.91;5033706;28;20046;-87
2021/08/22 02:23:13;;;;;;;6.82;4.00;;;;;;;24.56;49.29;100131.59;5033744;28;20048;-87
2021/08/22 02:25:56;;;;;;;8.93;5.50;;;;;;;24.45;49.73;100125.75;5033531;28;20041;-87
2021/08/22 02:28:24;;;;;;;10.00;5.40;;;;;;;24.11;50.32;100133.94;5034804;28;20095;-87
2021/08/22 02:30:56;;;;;;;10.93;5.45;;;;;;;24.17;50.31;100133.25;5033250;28;20073;-85
2021/08/22 02:33:37;;;;;;;10.02;4.72;;;;;;;24.41;50.34;100130.63;5034583;28;20548;-86
2021/08/22 02:36:18;;;;;;;9.63;4.85;;;;;;;24.22;50.70;100130.94;5034314;28;20136;-86
2021/08/22 02:38:47;;;;;;;8.13;5.53;;;;;;;24.38;50.14;100136.25;5043968;28;20033;-85
2021/08/22 02:41:15;;;;;;;7.25;4.57;;;;;;;24.03;50.95;100137.44;5050310;28;20053;-86
2021/08/22 02:43:43;;;;;;;6.10;4.47;;;;;;;23.94;51.13;100138.41;5049865;28;20402;-84
2021/08/22 02:46:24;;;;;;;13.48;5.40;;;;;;;23.67;51.86;100131.56;5030914;28;20048;-85
2021/08/22 02:48:54;;;;;;;7.65;5.00;;;;;;;23.55;52.80;100127.53;5032776;28;20050;-84
2021/08/22 02:51:25;;;;;;;5.53;4.22;;;;;;;23.47;52.52;100115.88;5034819;28;20133;-84
2021/08/22 02:53:55;;;;;;;5.97;4.15;;;;;;;23.47;52.84;100115.03;5049836;28;20041;-86
2021/08/22 02:56:23;;;;;;;7.40;5.00;;;;;;;23.38;53.29;100116.00;5035034;28;20042;-87
2021/08/22 02:58:50;;;;;;;5.68;4.15;;;;;;;23.49;52.90;100116.56;5034710;28;20085;-85
2021/08/22 03:01:19;;;;;;;7.03;4.47;;;;;;;23.49;52.73;100118.38;5034521;28;20136;-85
2021/08/22 03:03:48;;;;;;;7.93;4.47;;;;;;;23.11;53.68;100125.06;5034137;28;20075;-85
2021/08/22 03:06:17;;;;;;;5.28;4.43;;;;;;;23.46;52.86;100122.19;5033415;28;20069;-86
2021/08/22 03:08:43;;;;;;;5.63;4.20;;;;;;;23.44;52.94;100118.88;5034167;28;20052;-85
2021/08/22 03:11:16;;;;;;;5.57;4.82;;;;;;;23.56;52.57;100113.22;5034985;28;20443;-84
2021/08/22 03:13:43;;;;;;;13.75;5.15;;;;;;;23.66;52.61;100122.75;5049863;28;20049;-85
2021/08/22 03:16:14;;;;;;;5.30;4.57;;;;;;;23.15;53.54;100126.41;5034698;28;20045;-86
2021/08/22 03:18:57;;;;;;;7.00;4.45;;;;;;;23.23;53.48;100123.78;5046832;28;20056;-86
2021/08/22 03:21:41;;;;;;;5.57;4.82;;;;;;;23.16;53.69;100128.06;5033230;28;20055;-86
2021/08/22 03:24:22;;;;;;;4.80;4.30;;;;;;;23.14;54.02;100124.75;5034032;28;20046;-86
2021/08/22 03:27:03;;;;;;;6.22;5.32;;;;;;;23.12;53.43;100122.25;5015411;28;20076;-86
2021/08/22 03:29:32;;;;;;;5.40;4.90;;;;;;;23.38;52.96;100118.66;5025183;28;20050;-86
2021/08/22 03:32:08;;;;;;;7.95;5.18;;;;;;;23.10;52.78;100120.75;5049108;28;20496;-87
2021/08/22 03:34:53;;;;;;;6.07;4.72;;;;;;;23.23;52.63;100123.78;5049058;28;20136;-86
2021/08/22 03:37:28;;;;;;;7.40;5.30;;;;;;;23.07;52.86;100113.09;5033650;28;20073;-86
2021/08/22 03:40:10;;;;;;;4.55;4.20;;;;;;;23.49;51.37;100113.91;5033755;28;20053;-86
2021/08/22 03:42:38;;;;;;;9.60;4.90;;;;;;;23.70;50.42;100112.59;5033855;28;20489;-86
2021/08/22 03:45:09;;;;;;;10.52;5.07;;;;;;;23.91;49.35;100112.94;5034501;28;20049;-86
2021/08/22 03:47:36;;;;;;;16.88;6.32;;;;;;;23.97;48.97;100109.66;5032226;28;20041;-87
2021/08/22 03:50:04;;;;;;;7.28;4.85;;;;;;;24.03;49.33;100110.81;5032265;28;20053;-87
2021/08/22 03:52:35;;;;;;;6.20;4.82;;;;;;;24.19;48.93;100108.13;5032048;28;20511;-86
2021/08/22 03:55:04;;;;;;;8.68;4.38;;;;;;;24.26;48.44;100105.63;5034032;28;20056;-85
2021/08/22 03:57:34;;;;;;;7.13;4.10;;;;;;;24.24;48.33;100103.13;5048509;28;20048;-85
2021/08/22 04:00:02;;;;;;;5.43;4.68;;;;;;;24.14;48.14;100097.16;5031769;28;20052;-85
2021/08/22 04:02:37;;;;;;;5.05;4.53;;;;;;;24.19;47.84;100100.16;5013541;28;20049;-83
2021/08/22 04:05:25;;;;;;;5.53;4.60;;;;;;;24.09;48.26;100099.50;5039411;28;20049;-85
2021/08/22 04:07:54;;;;;;;9.50;4.55;;;;;;;24.08;48.35;100102.31;5032297;28;20037;-84
2021/08/22 04:10:25;;;;;;;6.47;3.85;;;;;;;24.10;48.00;100102.97;5033546;28;20046;-82
2021/08/22 04:12:54;;;;;;;9.88;4.07;;;;;;;24.11;48.54;100107.31;5033347;28;20506;-84
2021/08/22 04:15:22;;;;;;;7.97;4.70;;;;;;;24.13;47.96;100106.16;5032165;28;20041;-84
2021/08/22 04:17:49;;;;;;;6.20;4.03;;;;;;;24.17;48.06;100102.13;5048880;28;20057;-83
2021/08/22 04:20:17;;;;;;;9.95;4.28;;;;;;;24.05;47.93;100111.47;5031905;28;20116;-83
2021/08/22 04:22:44;;;;;;;4.65;4.05;;;;;;;24.08;47.84;100111.16;5033642;28;20098;-83
2021/08/22 04:25:12;;;;;;;5.78;3.75;;;;;;;24.05;47.99;100120.28;5015309;28;20041;-84
2021/08/22 04:27:40;;;;;;;4.93;4.43;;;;;;;24.05;48.20;100114.97;5032289;28;20056;-84
2021/08/22 04:30:12;;;;;;;6.88;4.10;;;;;;;24.11;48.01;100124.09;5032822;28;20499;-84
2021/08/22 04:32:39;;;;;;;6.53;4.55;;;;;;;24.28;47.23;100111.59;5032984;28;20484;-83
2021/08/22 04:35:09;;;;;;;7.80;3.97;;;;;;;24.18;48.34;100113.59;5032742;28;20263;-86
2021/08/22 04:37:38;;;;;;;6.47;4.05;;;;;;;24.15;47.79;100116.63;5032123;28;20049;-83
2021/08/22 04:40:06;;;;;;;4.97;3.70;;;;;;;24.26;47.48;100108.28;5032646;28;20048;-83
2021/08/22 04:42:33;;;;;;;7.20;4.20;;;;;;;24.33;47.22;100111.94;5032976;28;20052;-83
2021/08/22 04:45:00;;;;;;;4.90;4.05;;;;;;;24.16;47.57;100115.63;5030846;28;20052;-83
2021/08/22 04:47:27;;;;;;;5.57;4.28;;;;;;;24.31;46.91;100119.28;5047945;28;20053;-83
2021/08/22 04:49:55;;;;;;;7.38;4.88;;;;;;;24.41;46.77;100119.13;5031356;28;20137;-83
2021/08/22 04:52:22;;;;;;;5.13;4.03;;;;;;;24.19;46.95;100121.44;5047825;28;20045;-84
2021/08/22 04:54:49;;;;;;;7.45;4.75;;;;;;;24.29;46.25;100121.28;5031454;28;20144;-86
2021/08/22 04:57:16;;;;;;;5.72;4.13;;;;;;;24.38;46.57;100114.13;5047436;28;20041;-85
2021/08/22 04:59:43;;;;;;;5.97;4.75;;;;;;;24.49;45.65;100114.59;5031263;28;20050;-84
2021/08/22 05:02:10;;;;;;;6.00;3.88;;;;;;;24.46;45.59;100111.47;5031057;28;20048;-84
2021/08/22 05:04:37;;;;;;;9.48;5.30;;;;;;;24.28;46.83;100127.59;5031187;28;20042;-84
2021/08/22 05:07:05;;;;;;;7.03;4.50;;;;;;;24.45;46.73;100125.75;5032026;28;20456;-85
2021/08/22 05:09:32;;;;;;;6.43;4.40;;;;;;;24.46;46.16;100127.44;5031262;28;20052;-83
2021/08/22 05:11:59;;;;;;;7.63;4.65;;;;;;;24.50;46.06;100120.75;5030913;28;20050;-82
2021/08/22 05:14:30;;;;;;;5.93;3.97;;;;;;;24.60;45.98;100120.56;5032326;28;20037;-84
2021/08/22 05:16:57;;;;;;;5.70;4.28;;;;;;;24.71;46.35;100121.03;5031110;28;20046;-86
2021/08/22 05:19:26;;;;;;;7.25;4.93;;;;;;;24.70;45.37;100130.03;5031982;28;20051;-86
2021/08/22 05:21:54;;;;;;;5.82;4.90;;;;;;;24.78;43.98;100126.53;5031250;28;20128;-85
2021/08/22 05:24:21;;;;;;;4.03;3.53;;;;;;;24.93;44.59;100124.81;5032132;28;20527;-85
2021/08/22 05:26:48;;;;;;;8.27;4.65;;;;;;;24.80;44.45;100124.53;5032276;28;20037;-84
2021/08/22 05:29:15;;;;;;;8.43;4.25;;;;;;;25.08;43.46;100123.09;5047293;28;20406;-84
2021/08/22 05:31:42;;;;;;;9.32;4.15;;;;;;;25.13;42.91;100130.59;5031014;28;20044;-85
2021/08/22 05:34:08;;;;;;;11.10;4.88;;;;;;;25.14;42.87;100126.06;5030531;28;20038;-84
2021/08/22 05:36:37;;;;;;;5.43;4.38;;;;;;;25.20;42.66;100125.41;5013451;28;20045;-87
2021/08/22 05:39:19;;;;;;;6.93;3.60;;;;;;;25.24;43.58;100132.03;5022866;28;20038;-85
2021/08/22 05:41:50;;;;;;;6.97;4.70;;;;;;;25.46;42.38;100133.94;5028891;28;20061;-87
2021/08/22 05:44:31;;;;;;;9.45;4.38;;;;;;;25.45;42.75;100124.25;5025287;28;20045;-87
2021/08/22 05:47:12;;;;;;;10.40;4.32;;;;;;;25.70;41.54;100121.44;5025555;28;20073;-86
2021/08/22 05:49:39;;;;;;;4.78;3.50;;;;;;;25.76;41.87;100120.75;5027709;28;20152;-87
2021/08/22 05:52:20;;;;;;;7.35;4.30;;;;;;;25.66;40.82;100125.47;5025849;28;20056;-85
2021/08/22 05:55:07;;;;;;;7.80;4.07;;;;;;;25.66;40.79;100131.63;5035217;28;20049;-83
2021/08/22 05:57:39;;;;;;;5.07;4.50;;;;;;;25.74;40.79;100136.09;5039803;28;20038;-84
2021/08/22 06:00:22;;;;;;;4.75;4.35;;;;;;;26.07;41.33;100139.38;5027462;28;20068;-89
2021/08/22 06:02:52;;;;;;;11.73;5.35;;;;;;;26.38;40.71;100142.78;5026939;28;20041;-89
2021/08/22 06:05:29;;;;;;;12.30;4.40;;;;;;;26.15;41.78;100141.97;5016091;28;20134;-88
2021/08/22 06:08:00;;;;;;;5.63;4.57;;;;;;;26.13;41.98;100144.00;5037887;28;20042;-86
2021/08/22 06:10:28;;;;;;;6.35;4.32;;;;;;;26.25;41.19;100144.38;5022512;28;20037;-86
2021/08/22 06:12:56;;;;;;;6.25;3.67;;;;;;;26.40;41.74;100145.25;5027123;28;20043;-84
2021/08/22 06:15:23;;;;;;;4.85;3.70;;;;;;;26.50;40.27;100145.03;5026648;28;20049;-88
2021/08/22 06:18:05;;;;;;;7.70;4.63;;;;;;;26.44;40.67;100151.94;5025505;28;20555;-85
2021/08/22 06:20:32;;;;;;;9.05;4.57;;;;;;;26.51;40.75;100152.84;5012178;28;20033;-86
2021/08/22 06:23:00;;;;;;;7.75;4.80;;;;;;;26.51;40.91;100152.84;5026944;28;20038;-85
2021/08/22 06:25:27;;;;;;;5.78;3.90;;;;;;;26.49;41.03;100154.88;5045500;28;20045;-83
2021/08/22 06:27:55;;;;;;;6.53;4.75;;;;;;;26.66;40.60;100157.41;5031967;28;20037;-87
2021/08/22 06:30:23;;;;;;;8.60;4.25;;;;;;;26.60;39.98;100156.28;5045750;28;20049;-87
2021/08/22 06:32:50;;;;;;;10.23;3.92;;;;;;;26.59;41.50;100158.13;5028421;28;20144;-91
2021/08/22 06:35:18;;;;;;;3.83;3.45;;;;;;;26.69;41.44;100170.41;5033690;28;20064;-92
2021/08/22 06:37:55;;;;;;;6.00;4.55;;;;;;;26.64;41.65;100165.63;5027111;28;20042;-90
2021/08/22 06:40:23;;;;;;;9.07;3.70;;;;;;;26.58;41.85;100169.84;5030949;28;20480;-93
2021/08/22 06:42:52;;;;;;;5.35;4.05;;;;;;;26.47;42.17;100175.59;5034685;28;20095;-94
2021/08/22 06:45:21;;;;;;;6.38;3.88;;;;;;;26.44;41.55;100173.31;5041072;28;20049;-90
2021/08/22 06:47:53;;;;;;;7.63;4.43;;;;;;;26.49;41.51;100173.59;5031500;28;20068;-91
2021/08/22 06:50:24;;;;;;;8.77;4.68;;;;;;;26.61;41.54;100164.13;5031256;28;20132;-93
2021/08/22 06:52:56;;;;;;;6.40;3.75;;;;;;;26.57;41.95;100170.84;5033335;28;20046;-85
2021/08/22 06:55:23;;;;;;;8.55;4.60;;;;;;;26.95;41.79;100169.94;5031406;28;20041;-94
2021/08/22 06:57:50;;;;;;;10.93;4.65;;;;;;;26.83;41.98;100170.41;5029301;28;20045;-92
2021/08/22 07:00:20;;;;;;;6.05;4.25;;;;;;;26.77;42.02;100165.78;5031132;28;20500;-93
2021/08/22 07:02:47;;;;;;;7.15;4.35;;;;;;;26.80;41.71;100161.94;5031685;28;20059;-91
2021/08/22 07:05:15;;;;;;;8.73;4.30;;;;;;;26.76;42.21;100160.63;5034583;28;20042;-96
2021/08/22 07:07:42;;;;;;;9.80;4.95;;;;;;;26.77;42.15;100156.94;5032782;28;20037;-91
2021/08/22 07:10:36;;;;;;;5.53;4.55;;;;;;;26.75;42.59;100165.16;5034192;28;20073;-89
2021/08/22 07:13:06;;;;;;;12.38;4.90;;;;;;;27.13;42.71;100167.75;5048921;28;20091;-91
2021/08/22 07:15:34;;;;;;;13.75;4.57;;;;;;;26.89;41.94;100163.47;5048602;28;20045;-87
2021/08/22 07:18:05;;;;;;;7.80;4.93;;;;;;;26.97;42.12;100165.25;5031085;28;20510;-88
2021/08/22 07:20:52;;;;;;;5.13;4.28;;;;;;;27.12;41.66;100158.91;5031147;28;20037;-88
2021/08/22 07:23:19;;;;;;;7.15;5.35;;;;;;;27.23;41.57;100162.97;5030545;28;20048;-87
2021/08/22 07:25:46;;;;;;;10.75;4.82;;;;;;;26.97;41.43;100166.06;5031872;28;20034;-91
2021/08/22 07:28:19;;;;;;;11.35;4.30;;;;;;;27.15;41.67;100160.38;5029106;28;20045;-86
2021/08/22 07:30:50;;;;;;;10.95;4.85;;;;;;;27.03;41.72;100161.84;5041165;28;20481;-85
2021/08/22 07:33:33;;;;;;;6.80;5.07;;;;;;;26.99;41.45;100157.84;5037431;28;20041;-83
2021/08/22 07:36:02;;;;;;;8.20;4.57;;;;;;;26.81;42.05;100158.25;5022013;28;20054;-82
2021/08/22 07:38:32;;;;;;;8.57;4.85;;;;;;;27.07;41.69;100163.16;5043532;28;20833;-79
2021/08/22 07:41:00;;;;;;;7.72;4.88;;;;;;;26.56;43.09;100161.16;5028698;28;20042;-80
2021/08/22 07:43:27;;;;;;;9.88;4.30;;;;;;;26.68;43.85;100164.22;5027713;28;20060;-80
2021/08/22 07:45:54;;;;;;;5.35;4.35;;;;;;;26.69;44.18;100159.72;5028436;28;20516;-82
2021/08/22 07:48:21;;;;;;;6.85;3.80;;;;;;;26.32;43.99;100164.06;5050790;28;20389;-83
2021/08/22 07:50:48;;;;;;;6.88;4.40;;;;;;;26.55;44.08;100167.53;5029502;28;20076;-83
2021/08/22 07:53:16;;;;;;;7.70;4.65;;;;;;;26.52;44.32;100159.84;5031323;28;20029;-81
2021/08/22 07:55:43;;;;;;;9.68;4.68;;;;;;;26.72;43.70;100159.34;5024880;28;20045;-81
2021/08/22 07:58:11;;;;;;;7.88;4.15;;;;;;;26.86;43.81;100166.53;5027592;28;20492;-81
2021/08/22 08:00:37;;;;;;;7.80;5.13;;;;;;;26.52;44.40;100159.03;5026454;28;20534;-81
2021/08/22 08:03:04;;;;;;;8.73;4.80;;;;;;;26.55;45.04;100158.69;5028838;28;20084;-82
2021/08/22 08:05:31;;;;;;;7.97;4.30;;;;;;;26.57;44.33;100162.81;5025297;28;20041;-81
2021/08/22 08:07:58;;;;;;;5.70;4.82;;;;;;;26.56;44.40;100165.69;5030186;28;20132;-81
2021/08/22 08:10:26;;;;;;;7.43;5.18;;;;;;;26.55;43.64;100167.53;5027418;28;20038;-81
2021/08/22 08:12:53;;;;;;;10.45;4.68;;;;;;;26.60;43.50;100165.13;5026593;28;20103;-81
2021/08/22 08:15:21;;;;;;;7.53;4.43;;;;;;;26.27;43.60;100166.44;5028701;28;20177;-81
2021/08/22 08:17:48;;;;;;;12.05;5.35;;;;;;;26.48;43.32;100174.63;5026647;28;20045;-81
2021/08/22 08:20:14;;;;;;;6.65;4.80;;;;;;;26.40;43.45;100171.97;5031222;28;20545;-80
2021/08/22 08:22:41;;;;;;;16.50;6.43;;;;;;;26.32;43.04;100174.75;5024712;28;20542;-81
2021/08/22 08:25:08;;;;;;;8.95;5.60;;;;;;;26.23;43.69;100171.28;5027043;28;20037;-81
2021/08/22 08:27:35;;;;;;;5.07;4.10;;;;;;;26.21;43.50;100177.84;5027358;28;20037;-80
2021/08/22 08:30:03;;;;;;;8.57;5.43;;;;;;;26.12;43.60;100174.41;5030110;28;20442;-80
2021/08/22 08:32:29;;;;;;;10.80;4.88;;;;;;;26.45;43.14;100174.97;5029028;28;20096;-79
2021/08/22 08:34:56;;;;;;;9.63;4.70;;;;;;;26.50;43.41;100172.59;5025407;28;20041;-79
2021/08/22 08:37:23;;;;;;;12.15;5.35;;;;;;;26.63;42.91;100167.47;5025793;28;20365;-79
2021/08/22 08:39:52;;;;;;;8.20;5.28;;;;;;;26.57;42.71;100168.16;5028851;28;20199;-81
2021/08/22 08:42:22;;;;;;;7.90;4.35;;;;;;;26.46;42.93;100165.94;5027172;28;20046;-80
2021/08/22 08:44:52;;;;;;;6.38;4.80;;;;;;;26.46;42.30;100154.41;5027975;28;20073;-80
2021/08/22 08:47:20;;;;;;;9.38;4.72;;;;;;;26.54;42.28;100162.38;5043070;28;20483;-80
2021/08/22 08:50:10;;;;;;;5.35;4.40;;;;;;;26.47;41.56;100156.06;5029205;28;20088;-81
2021/08/22 08:53:04;;;;;;;5.03;4.40;;;;;;;26.69;41.24;100157.03;5026849;28;20041;-81
2021/08/22 08:55:45;;;;;;;6.63;4.88;;;;;;;26.62;40.70;100155.06;5016573;28;20417;-80
2021/08/22 08:58:12;;;;;;;9.35;4.32;;;;;;;26.86;40.90;100155.84;5025896;28;20731;-80
2021/08/22 09:00:41;;;;;;;6.47;4.25;;;;;;;27.11;39.76;100153.72;5029132;28;20037;-80
2021/08/22 09:03:08;;;;;;;4.68;4.18;;;;;;;27.18;39.28;100156.50;5029442;28;20029;-81
2021/08/22 09:05:42;;;;;;;5.95;4.20;;;;;;;26.99;40.04;100149.84;5026911;28;20052;-79
2021/08/22 09:08:27;;;;;;;9.75;4.95;;;;;;;27.08;39.48;100149.59;5027558;28;20038;-80
2021/08/22 09:11:33;;;;;;;10.68;4.90;;;;;;;27.20;39.63;100144.59;5027792;28;20037;-79
2021/08/22 09:14:22;;;;;;;6.55;4.93;;;;;;;27.50;39.34;100147.22;5023498;28;20455;-78
2021/08/22 09:17:03;;;;;;;8.02;5.07;;;;;;;27.44;40.06;100146.13;5026158;28;20408;-78
2021/08/22 09:19:51;;;;;;;7.70;4.95;;;;;;;27.57;40.62;100143.56;5027746;28;20065;-82
2021/08/22 09:22:36;;;;;;;9.15;5.10;;;;;;;27.68;40.42;100129.69;5029303;28;20048;-84
2021/08/22 09:25:40;;;;;;;7.57;4.72;;;;;;;27.90;40.61;100127.03;5027833;28;20064;-83
2021/08/22 09:28:07;;;;;;;9.45;5.43;;;;;;;27.76;40.91;100122.59;5023833;28;20128;-85
2021/08/22 09:30:37;;;;;;;6.55;5.60;;;;;;;27.59;40.81;100130.84;5029755;28;20065;-81
2021/08/22 09:33:42;;;;;;;10.82;5.55;;;;;;;27.89;40.07;100110.13;5029587;28;20095;-82
2021/08/22 09:36:24;;;;;;;9.57;5.40;;;;;;;27.99;39.74;100115.19;5028306;28;20099;-83
2021/08/22 09:39:28;;;;;;;6.80;4.60;;;;;;;28.09;39.94;100110.31;5028223;28;20052;-81
2021/08/22 09:42:13;;;;;;;12.73;6.82;;;;;;;28.32;40.06;100117.28;5017142;28;20077;-83
2021/08/22 09:44:43;;;;;;;10.52;5.78;;;;;;;27.97;39.53;100117.22;5017962;28;20480;-86
2021/08/22 09:47:13;;;;;;;9.77;5.32;;;;;;;28.17;39.56;100107.47;5018442;28;20496;-84
2021/08/22 09:50:19;;;;;;;8.10;5.05;;;;;;;28.27;39.36;100109.81;5021493;28;20054;-88
2021/08/22 09:53:31;;;;;;;11.57;5.72;;;;;;;28.43;39.08;100100.69;5021379;28;20063;-89
2021/08/22 09:56:13;;;;;;;8.55;6.05;;;;;;;28.03;40.24;100111.09;5006519;28;20477;-90
2021/08/22 09:59:00;;;;;;;8.07;5.40;;;;;;;28.26;39.37;100105.50;5028858;28;20037;-88
2021/08/22 10:01:32;;;;;;;8.88;4.93;;;;;;;28.61;38.34;100106.38;5020063;28;20055;-86
2021/08/22 10:04:24;;;;;;;7.05;5.13;;;;;;;28.29;38.90;100105.13;5017350;28;20073;-81
2021/08/22 10:06:59;;;;;;;8.23;5.20;;;;;;;28.41;38.07;100102.75;5018497;28;20239;-81
2021/08/22 10:09:58;;;;;;;7.32;5.15;;;;;;;28.31;39.37;100096.88;5018819;28;20049;-85
2021/08/22 10:12:24;;;;;;;7.95;5.53;;;;;;;28.49;39.50;100097.22;5019426;28;20516;-88
2021/08/22 10:14:51;;;;;;;7.72;5.85;;;;;;;28.35;40.48;100090.13;5019771;28;20096;-86
2021/08/22 10:17:23;;;;;;;7.40;5.05;;;;;;;28.30;39.73;100087.19;5026933;28;20038;-81
2021/08/22 10:19:50;;;;;;;14.18;5.65;;;;;;;28.54;39.57;100092.09;5019195;28;20042;-84
2021/08/22 10:22:31;;;;;;;7.65;5.53;;;;;;;28.42;40.37;100082.94;5020256;28;20607;-84
2021/08/22 10:25:02;;;;;;;6.32;5.63;;;;;;;28.41;40.12;100078.63;5020921;28;20046;-86
2021/08/22 10:30:02;;;;;;;8.00;5.88;;;;;;;28.69;39.30;100074.03;5021272;28;20072;-84
2021/08/22 10:32:33;;;;;;;10.88;5.93;;;;;;;28.81;39.43;100068.91;5020270;28;20479;-90
2021/08/22 10:35:12;;;;;;;12.18;5.85;;;;;;;28.57;39.52;100070.25;5023156;28;20092;-88
2021/08/22 10:37:43;;;;;;;11.20;5.28;;;;;;;28.48;39.70;100070.63;5019160;28;20108;-87
2021/08/22 10:40:25;;;;;;;7.00;5.22;;;;;;;28.34;39.77;100062.50;5022025;28;20164;-88
2021/08/22 10:43:09;;;;;;;9.63;5.05;;;;;;;28.65;39.01;100070.06;5029899;28;20759;-89
2021/08/22 10:45:52;;;;;;;6.43;4.63;;;;;;;28.93;38.77;100058.47;5032563;28;20045;-91
2021/08/22 10:48:22;;;;;;;9.05;4.72;;;;;;;28.82;39.29;100051.00;5034104;28;20092;-91
2021/08/22 10:51:07;;;;;;;5.28;4.78;;;;;;;28.98;38.70;100050.69;5049107;28;20400;-93
2021/08/22 10:53:39;;;;;;;16.15;5.03;;;;;;;28.77;39.36;100045.41;5048429;28;20034;-89
2021/08/22 10:56:21;;;;;;;5.80;4.28;;;;;;;28.88;38.50;100045.66;5021161;28;20551;-85
2021/08/22 10:59:08;;;;;;;5.45;4.82;;;;;;;28.49;39.14;100035.56;5020420;28;20033;-86
2021/08/22 11:01:37;;;;;;;11.48;6.05;;;;;;;28.98;38.41;100023.84;5020843;28;20068;-87
2021/08/22 11:04:10;;;;;;;7.03;5.05;;;;;;;28.85;38.44;100024.56;5017225;28;20137;-83
2021/08/22 11:06:52;;;;;;;7.65;5.28;;;;;;;29.16;38.05;100023.25;5018719;28;20447;-85
2021/08/22 11:09:34;;;;;;;6.47;4.70;;;;;;;29.08;37.47;100023.44;5019493;28;20038;-85
2021/08/22 11:12:00;;;;;;;7.10;4.70;;;;;;;29.18;38.73;100016.66;5019413;28;20042;-82
2021/08/22 11:14:27;;;;;;;7.53;4.40;;;;;;;29.23;38.85;100021.41;5019829;28;20034;-83
2021/08/22 11:16:58;;;;;;;8.57;4.72;;;;;;;29.39;38.76;100017.50;5015725;28;20427;-83
2021/08/22 11:19:25;;;;;;;10.75;5.40;;;;;;;29.27;39.35;100019.16;5018172;28;20046;-84
2021/08/22 11:21:52;;;;;;;7.47;5.45;;;;;;;29.34;39.24;100019.97;5017555;28;20092;-84
2021/08/22 11:24:19;;;;;;;9.10;4.88;;;;;;;29.41;39.01;100023.53;5022332;28;20044;-80
2021/08/22 11:26:46;;;;;;;9.13;5.22;;;;;;;29.44;38.56;100018.56;5023445;28;20045;-83
2021/08/22 11:29:13;;;;;;;7.93;5.85;;;;;;;29.33;38.91;100012.97;5023225;28;20046;-83
2021/08/22 11:31:40;;;;;;;7.20;4.82;;;;;;;29.44;38.47;100018.56;5018478;28;20034;-85
2021/08/22 11:34:11;;;;;;;8.98;4.50;;;;;;;29.39;39.11;100012.97;5021712;28;20046;-83
2021/08/22 11:36:39;;;;;;;10.60;5.45;;;;;;;29.51;38.31;100010.53;5024820;28;20041;-87
2021/08/22 11:39:14;;;;;;;10.25;5.15;;;;;;;29.71;38.42;100014.06;5018375;28;20034;-83
2021/08/22 11:41:47;;;;;;;6.93;5.07;;;;;;;29.63;38.32;100011.59;5022226;28;20092;-84
2021/08/22 11:44:22;;;;;;;10.55;4.57;;;;;;;29.64;37.79;100013.22;5022691;28;20169;-86
2021/08/22 11:46:51;;;;;;;10.00;4.78;;;;;;;29.62;38.21;100011.81;5026342;28;20041;-83
2021/08/22 11:49:19;;;;;;;10.75;5.93;;;;;;;29.71;37.48;100005.16;5031390;28;20045;-90
2021/08/22 11:51:54;;;;;;;6.57;4.97;;;;;;;29.56;38.12;99999.16;5033633;28;20037;-90